Time;durP1;ratioP1;P1;durP2;ratioP2;P2;SDS_P1;SDS_P2;PMS_P1;PMS_P2;Temp;Humidity;BMP_temperature;BMP_pressure;BME280_temperature;BME280_humidity;BME280_pressure;Samples;Min_cycle;Max_cycle;Signal;HPM_P1;HPM_P2
2022/05/16 00:02:14;;;;;;;8.70;4.50;;;17.10;67.00;;;;;;5089292;28;20484;-69
2022/05/16 00:04:44;;;;;;;8.17;3.90;;;17.10;67.00;;;;;;5090758;27;20980;-69
2022/05/16 00:07:12;;;;;;;6.13;3.97;;;17.10;67.10;;;;;;5100877;27;20528;-68
2022/05/16 00:09:42;;;;;;;6.90;3.90;;;17.10;67.10;;;;;;5093891;27;20461;-70
2022/05/16 00:12:11;;;;;;;7.70;4.20;;;17.10;67.10;;;;;;5093796;27;20822;-71
2022/05/16 00:14:40;;;;;;;7.40;4.07;;;17.10;67.10;;;;;;5090659;28;20495;-69
2022/05/16 00:17:08;;;;;;;6.00;3.57;;;17.10;66.90;;;;;;5091404;27;20496;-68
2022/05/16 00:19:36;;;;;;;7.30;4.70;;;17.00;66.90;;;;;;5089068;27;20468;-70
2022/05/16 00:22:05;;;;;;;7.93;4.27;;;16.90;67.10;;;;;;5091637;27;20820;-69
2022/05/16 00:24:33;;;;;;;7.63;4.00;;;16.90;67.10;;;;;;5088286;28;20469;-69
2022/05/16 00:27:03;;;;;;;7.07;4.50;;;16.90;67.10;;;;;;5107090;27;20537;-69
2022/05/16 00:29:32;;;;;;;6.93;3.97;;;16.90;67.10;;;;;;5044537;22;20501;-69
2022/05/16 00:32:00;;;;;;;8.13;3.77;;;16.80;67.10;;;;;;4993047;28;20584;-69
2022/05/16 00:34:28;;;;;;;6.50;3.83;;;16.80;67.10;;;;;;5002624;28;20483;-69
2022/05/16 00:36:57;;;;;;;6.83;4.03;;;16.70;67.10;;;;;;5012841;28;20493;-69
2022/05/16 00:39:30;;;;;;;6.53;4.10;;;16.70;67.10;;;;;;5013123;28;20997;-70
2022/05/16 00:41:59;;;;;;;8.93;4.37;;;16.60;67.30;;;;;;5017516;28;20461;-70
2022/05/16 00:44:29;;;;;;;6.87;3.80;;;16.60;67.30;;;;;;5015887;28;20488;-69
2022/05/16 00:46:57;;;;;;;7.27;4.13;;;16.60;67.30;;;;;;5020920;28;20851;-69
2022/05/16 00:49:27;;;;;;;8.43;4.33;;;16.60;67.50;;;;;;5020728;28;20550;-69
2022/05/16 00:52:00;;;;;;;6.53;3.80;;;16.50;67.50;;;;;;5019689;28;20493;-69
2022/05/16 00:54:31;;;;;;;8.40;3.70;;;16.50;67.60;;;;;;5018146;28;20494;-69
2022/05/16 00:57:03;;;;;;;7.20;4.43;;;16.50;67.70;;;;;;5014532;28;20475;-69
2022/05/16 00:59:40;;;;;;;7.73;4.30;;;16.60;67.60;;;;;;5014005;28;20491;-69
2022/05/16 01:04:55;;;;;;;7.13;4.03;;;16.50;67.70;;;;;;5017924;28;20492;-69
2022/05/16 01:07:29;;;;;;;8.17;3.97;;;16.50;67.70;;;;;;5034302;28;20467;-69
2022/05/16 01:09:57;;;;;;;6.60;4.37;;;16.50;67.70;;;;;;5014472;28;20484;-69
2022/05/16 01:12:32;;;;;;;6.37;3.87;;;16.50;67.70;;;;;;5019774;28;20467;-68
2022/05/16 01:15:04;;;;;;;8.23;4.97;;;16.50;67.70;;;;;;5020087;28;20482;-68
2022/05/16 01:17:32;;;;;;;8.57;4.60;;;16.50;67.80;;;;;;5014275;28;20775;-68
2022/05/16 01:20:00;;;;;;;8.20;4.87;;;16.40;67.70;;;;;;5016692;28;20549;-69
2022/05/16 01:22:33;;;;;;;8.93;4.87;;;16.40;67.60;;;;;;5016826;28;21145;-68
2022/05/16 01:25:07;;;;;;;7.47;4.70;;;16.30;67.70;;;;;;5015501;28;20480;-68
2022/05/16 01:27:48;;;;;;;7.30;4.70;;;16.30;67.70;;;;;;5027763;28;20451;-69
2022/05/16 01:30:19;;;;;;;6.70;4.10;;;16.20;67.80;;;;;;5015772;28;20472;-69
2022/05/16 01:32:47;;;;;;;7.47;5.10;;;16.20;67.80;;;;;;5013944;28;20466;-69
2022/05/16 01:35:19;;;;;;;8.00;4.33;;;16.10;67.90;;;;;;5012016;28;20567;-69
2022/05/16 01:40:35;;;;;;;7.93;4.70;;;16.10;68.00;;;;;;5030236;28;21081;-68
2022/05/16 01:43:03;;;;;;;7.63;4.40;;;16.10;68.10;;;;;;5020647;28;20447;-69
2022/05/16 01:45:31;;;;;;;9.07;4.60;;;16.10;68.10;;;;;;5017330;28;20551;-68
2022/05/16 01:47:59;;;;;;;8.10;5.07;;;16.20;68.10;;;;;;5014575;28;20464;-69
2022/05/16 01:50:28;;;;;;;8.90;4.60;;;16.20;68.10;;;;;;5013725;28;20475;-69
2022/05/16 01:52:57;;;;;;;6.70;4.00;;;16.10;67.90;;;;;;5013005;28;20459;-69
2022/05/16 01:55:25;;;;;;;6.67;3.90;;;16.00;67.90;;;;;;5014068;28;20498;-66
2022/05/16 01:57:53;;;;;;;9.90;4.60;;;16.00;68.00;;;;;;5016510;28;20463;-68
2022/05/16 02:00:22;;;;;;;11.03;4.67;;;15.90;68.00;;;;;;5013093;28;21118;-69
2022/05/16 02:02:50;;;;;;;7.83;4.40;;;15.80;68.00;;;;;;5013394;28;20455;-71
2022/05/16 02:05:21;;;;;;;10.13;5.13;;;15.70;67.90;;;;;;5011885;28;20503;-69
2022/05/16 02:07:50;;;;;;;6.60;4.23;;;15.60;68.00;;;;;;5012149;28;21424;-71
2022/05/16 02:10:22;;;;;;;7.20;4.13;;;15.60;68.20;;;;;;5016175;28;20448;-69
2022/05/16 02:12:51;;;;;;;8.73;4.53;;;15.60;68.30;;;;;;5014067;28;20473;-69
2022/05/16 02:15:22;;;;;;;9.70;5.07;;;15.60;68.40;;;;;;5018473;28;20791;-70
2022/05/16 02:17:50;;;;;;;8.20;4.33;;;15.60;68.40;;;;;;5015967;28;20459;-68
2022/05/16 02:20:18;;;;;;;7.73;4.43;;;15.60;68.30;;;;;;5012674;28;20457;-70
2022/05/16 02:25:36;;;;;;;7.23;4.30;;;15.50;68.40;;;;;;5021082;28;20480;-68
2022/05/16 02:28:05;;;;;;;8.53;3.90;;;15.50;68.50;;;;;;5020631;28;20460;-69
2022/05/16 02:30:34;;;;;;;7.43;4.20;;;15.50;68.50;;;;;;5019581;28;20452;-69
2022/05/16 02:33:03;;;;;;;11.07;4.47;;;15.50;68.40;;;;;;5021066;28;20498;-68
2022/05/16 02:35:31;;;;;;;7.47;4.67;;;15.50;68.50;;;;;;5025306;28;20483;-70
2022/05/16 02:37:59;;;;;;;7.23;4.50;;;15.50;68.60;;;;;;5011700;28;20463;-67
2022/05/16 02:40:29;;;;;;;8.57;4.40;;;15.60;68.70;;;;;;5011523;28;20491;-70
2022/05/16 02:42:58;;;;;;;6.70;4.50;;;15.60;68.60;;;;;;5018638;28;20456;-69
2022/05/16 02:45:28;;;;;;;6.87;4.00;;;15.60;68.50;;;;;;5025252;28;20849;-70
2022/05/16 02:47:56;;;;;;;7.60;4.20;;;15.60;68.50;;;;;;5021133;28;20465;-69
2022/05/16 02:50:25;;;;;;;11.87;5.20;;;15.60;68.50;;;;;;5021583;28;20705;-70
2022/05/16 02:52:54;;;;;;;7.73;4.53;;;15.60;68.60;;;;;;5020201;28;20487;-69
2022/05/16 02:55:23;;;;;;;8.43;5.00;;;15.60;68.70;;;;;;5019043;28;20487;-70
2022/05/16 02:57:51;;;;;;;8.93;4.90;;;15.60;68.80;;;;;;5021408;28;20443;-69
2022/05/16 03:00:21;;;;;;;7.57;5.17;;;15.60;68.80;;;;;;5020700;28;20482;-69
2022/05/16 03:02:51;;;;;;;9.17;5.33;;;15.50;68.80;;;;;;5020587;28;20456;-70
2022/05/16 03:05:19;;;;;;;9.13;4.63;;;15.50;68.90;;;;;;5019615;28;20553;-69
2022/05/16 03:07:48;;;;;;;7.57;4.80;;;15.60;68.90;;;;;;5020215;28;20462;-69
2022/05/16 03:10:16;;;;;;;8.40;4.57;;;15.60;68.90;;;;;;5019230;28;20460;-69
2022/05/16 03:12:45;;;;;;;8.50;4.67;;;15.60;68.90;;;;;;5021657;28;20479;-69
2022/05/16 03:15:15;;;;;;;7.33;4.10;;;15.60;69.00;;;;;;5020243;28;20488;-69
2022/05/16 03:17:48;;;;;;;9.50;5.60;;;15.60;69.10;;;;;;5020188;28;20498;-69
2022/05/16 03:20:16;;;;;;;9.73;5.23;;;15.60;69.10;;;;;;5017531;28;20474;-69
2022/05/16 03:22:45;;;;;;;10.33;4.90;;;15.60;69.10;;;;;;5021635;28;20474;-69
2022/05/16 03:25:13;;;;;;;10.13;5.37;;;15.60;69.10;;;;;;5018755;28;20492;-69
2022/05/16 03:27:41;;;;;;;8.40;4.73;;;15.60;69.20;;;;;;5022354;28;20470;-69
2022/05/16 03:30:11;;;;;;;7.80;4.43;;;15.60;69.30;;;;;;5021211;28;20467;-69
2022/05/16 03:32:39;;;;;;;8.63;4.60;;;15.70;69.40;;;;;;5024558;28;20487;-71
2022/05/16 03:35:10;;;;;;;8.07;5.27;;;15.70;69.40;;;;;;5019977;28;20506;-70
2022/05/16 03:37:38;;;;;;;7.23;4.67;;;15.70;69.30;;;;;;5019970;28;20459;-69
2022/05/16 03:42:52;;;;;;;8.50;5.10;;;15.70;69.40;;;;;;5020313;28;20460;-69
2022/05/16 03:45:21;;;;;;;9.50;4.80;;;15.70;69.30;;;;;;5021128;28;21083;-69
2022/05/16 03:47:49;;;;;;;7.47;4.40;;;15.70;69.40;;;;;;5021227;28;20467;-70
2022/05/16 03:50:19;;;;;;;11.23;4.93;;;15.70;69.50;;;;;;5017930;28;20465;-70
2022/05/16 03:52:47;;;;;;;7.57;5.10;;;15.70;69.60;;;;;;5035671;28;20559;-72
2022/05/16 03:55:16;;;;;;;13.50;5.83;;;15.80;69.50;;;;;;5020678;28;20486;-69
2022/05/16 03:57:45;;;;;;;6.67;3.60;;;15.80;69.50;;;;;;5021739;28;20991;-70
2022/05/16 04:00:16;;;;;;;8.50;5.37;;;15.80;69.50;;;;;;5020073;28;20947;-70
2022/05/16 04:02:45;;;;;;;8.63;4.87;;;15.70;69.50;;;;;;5022869;28;20461;-72
2022/05/16 04:05:18;;;;;;;8.00;5.10;;;15.70;69.40;;;;;;5018831;28;20520;-69
2022/05/16 04:07:49;;;;;;;7.60;4.87;;;15.60;69.60;;;;;;5020834;28;20892;-70
2022/05/16 04:10:17;;;;;;;7.90;5.03;;;15.60;69.60;;;;;;5020069;28;20486;-69
2022/05/16 04:12:45;;;;;;;7.37;4.83;;;15.60;69.90;;;;;;5021636;28;20985;-70
2022/05/16 04:15:14;;;;;;;7.50;4.73;;;15.70;70.10;;;;;;5019183;28;20871;-69
2022/05/16 04:17:43;;;;;;;7.03;4.73;;;15.70;70.30;;;;;;5022983;28;20888;-69
2022/05/16 04:20:13;;;;;;;9.20;5.27;;;15.80;70.40;;;;;;5021396;28;20556;-69
2022/05/16 04:22:42;;;;;;;7.30;5.20;;;15.90;70.50;;;;;;5017259;28;20522;-69
2022/05/16 04:25:16;;;;;;;7.70;5.10;;;15.90;70.60;;;;;;5017952;28;21287;-70
2022/05/16 04:27:46;;;;;;;7.33;5.00;;;16.00;70.70;;;;;;5018825;28;20494;-69
2022/05/16 04:30:15;;;;;;;10.00;5.37;;;16.10;70.70;;;;;;5017263;28;20467;-68
2022/05/16 04:32:43;;;;;;;8.10;5.37;;;16.10;70.70;;;;;;5019729;28;21458;-68
2022/05/16 04:35:12;;;;;;;12.33;5.20;;;16.20;70.80;;;;;;5019343;28;20590;-70
2022/05/16 04:37:40;;;;;;;8.70;5.60;;;16.20;70.90;;;;;;5021484;28;20475;-69
2022/05/16 04:40:10;;;;;;;10.50;5.23;;;16.20;70.90;;;;;;5017603;28;20463;-69
2022/05/16 04:42:42;;;;;;;9.20;5.50;;;16.20;71.00;;;;;;5017643;28;20465;-69
2022/05/16 04:45:16;;;;;;;9.50;5.90;;;16.20;71.00;;;;;;5019130;28;20522;-69
2022/05/16 04:47:48;;;;;;;9.70;6.00;;;16.30;71.00;;;;;;5016241;28;20832;-70
2022/05/16 04:50:21;;;;;;;7.50;5.10;;;16.30;71.00;;;;;;5013995;28;20452;-69
2022/05/16 04:52:49;;;;;;;8.70;4.97;;;16.30;71.00;;;;;;5012824;28;20496;-70
2022/05/16 04:55:18;;;;;;;8.87;5.70;;;16.30;71.00;;;;;;5017011;28;20480;-70
2022/05/16 04:57:49;;;;;;;7.80;5.63;;;16.30;71.00;;;;;;5011365;28;20444;-70
2022/05/16 05:00:19;;;;;;;9.37;5.77;;;16.30;71.00;;;;;;5013537;28;21008;-69
2022/05/16 05:02:47;;;;;;;12.17;5.70;;;16.30;71.10;;;;;;5023016;28;20961;-69
2022/05/16 05:05:22;;;;;;;9.00;5.63;;;16.30;71.20;;;;;;5020067;28;20527;-69
2022/05/16 05:07:50;;;;;;;10.03;6.73;;;16.30;71.40;;;;;;5012505;28;20444;-69
2022/05/16 05:16:03;;;;;;;9.60;5.70;;;16.40;71.60;;;;;;5016148;28;20481;-69
2022/05/16 05:18:32;;;;;;;10.80;6.43;;;16.40;71.80;;;;;;5022078;28;20490;-70
2022/05/16 05:21:00;;;;;;;8.73;5.30;;;16.50;72.20;;;;;;5020231;28;20482;-71
2022/05/16 05:23:28;;;;;;;9.73;5.30;;;16.80;73.40;;;;;;5016285;28;20441;-69
2022/05/16 05:25:57;;;;;;;10.57;5.23;;;17.60;73.70;;;;;;5017618;28;20547;-69
2022/05/16 05:28:27;;;;;;;11.67;5.70;;;18.70;72.50;;;;;;5023014;28;20469;-70
2022/05/16 05:30:55;;;;;;;11.50;5.10;;;19.80;70.90;;;;;;5013228;28;21055;-69
2022/05/16 05:33:23;;;;;;;7.97;5.63;;;20.90;69.60;;;;;;5019452;28;20469;-70
2022/05/16 05:35:51;;;;;;;9.27;5.17;;;21.90;68.20;;;;;;5021342;28;20480;-71
2022/05/16 05:38:19;;;;;;;8.03;5.20;;;22.80;66.80;;;;;;5018990;28;20483;-69
2022/05/16 05:40:49;;;;;;;8.60;5.20;;;23.30;65.00;;;;;;5019527;28;20466;-70
2022/05/16 05:43:17;;;;;;;9.83;5.10;;;23.00;63.90;;;;;;5019582;28;20460;-70
2022/05/16 05:45:46;;;;;;;11.23;5.63;;;22.60;64.30;;;;;;5032675;28;20841;-70
2022/05/16 05:48:14;;;;;;;11.20;5.80;;;22.50;64.00;;;;;;5018685;28;20464;-69
2022/05/16 05:50:42;;;;;;;9.63;5.33;;;22.00;63.70;;;;;;5020515;28;20863;-70
2022/05/16 05:53:10;;;;;;;9.80;5.30;;;21.50;64.50;;;;;;5015247;28;20494;-70
2022/05/16 05:55:39;;;;;;;9.30;5.33;;;21.70;67.00;;;;;;5011877;28;20457;-72
2022/05/16 05:58:07;;;;;;;9.97;5.20;;;22.50;66.20;;;;;;5023307;28;20452;-71
2022/05/16 06:00:35;;;;;;;8.60;4.77;;;23.20;64.60;;;;;;5015131;28;21010;-71
2022/05/16 06:03:04;;;;;;;13.80;5.87;;;23.10;62.90;;;;;;5016843;28;20813;-71
2022/05/16 06:05:32;;;;;;;11.20;5.20;;;22.40;62.30;;;;;;5016184;28;20478;-71
2022/05/16 06:08:00;;;;;;;9.57;5.37;;;22.30;65.00;;;;;;5016337;28;21024;-71
2022/05/16 06:10:28;;;;;;;11.80;5.90;;;23.10;64.90;;;;;;5014467;28;20470;-70
2022/05/16 06:12:56;;;;;;;9.83;5.30;;;23.70;63.40;;;;;;5016111;28;20486;-70
2022/05/16 06:15:24;;;;;;;8.77;5.57;;;23.90;61.90;;;;;;5015968;28;20468;-71
2022/05/16 06:17:52;;;;;;;11.53;6.20;;;23.60;60.80;;;;;;5020771;28;20472;-71
2022/05/16 06:20:22;;;;;;;10.03;6.50;;;22.90;60.80;;;;;;5015385;28;20448;-71
2022/05/16 06:22:50;;;;;;;12.97;6.50;;;22.20;61.20;;;;;;5014389;28;20459;-71
2022/05/16 06:25:32;;;;;;;9.63;6.00;;;21.60;61.90;;;;;;5011851;28;20471;-71
2022/05/16 06:28:04;;;;;;;13.50;6.50;;;21.00;62.40;;;;;;5009877;28;20601;-71
2022/05/16 06:30:32;;;;;;;12.00;5.53;;;20.60;63.10;;;;;;5011883;28;20488;-71
2022/05/16 06:33:00;;;;;;;10.13;6.20;;;20.30;63.60;;;;;;5019061;28;20479;-71
2022/05/16 06:35:30;;;;;;;12.67;6.07;;;20.00;64.10;;;;;;5017390;28;20484;-71
2022/05/16 06:38:05;;;;;;;11.50;6.00;;;19.80;64.60;;;;;;5013391;28;20470;-71
2022/05/16 06:40:33;;;;;;;7.90;5.47;;;19.70;65.00;;;;;;5014320;28;20470;-71
2022/05/16 06:43:01;;;;;;;7.47;5.03;;;19.60;65.30;;;;;;5017791;28;20460;-71
2022/05/16 06:45:29;;;;;;;9.40;5.50;;;19.50;65.60;;;;;;5020515;28;20488;-71
2022/05/16 06:47:58;;;;;;;10.10;6.40;;;19.50;66.00;;;;;;5018932;28;20470;-71
2022/05/16 06:50:26;;;;;;;9.60;6.27;;;19.50;66.20;;;;;;5017255;28;20461;-71
2022/05/16 06:52:55;;;;;;;13.90;6.00;;;19.50;66.40;;;;;;5023271;28;20508;-71
2022/05/16 06:55:23;;;;;;;7.90;5.33;;;19.50;66.70;;;;;;5016758;28;20491;-71
2022/05/16 06:57:52;;;;;;;11.83;5.63;;;19.50;66.90;;;;;;5015056;28;20462;-71
2022/05/16 07:00:20;;;;;;;9.27;5.27;;;19.40;67.00;;;;;;5021109;28;20461;-71
2022/05/16 07:02:48;;;;;;;9.97;5.67;;;19.40;67.40;;;;;;5019100;28;20463;-71
2022/05/16 07:05:36;;;;;;;8.93;5.97;;;19.40;67.70;;;;;;5018090;28;20560;-71
2022/05/16 07:08:06;;;;;;;11.73;5.80;;;19.40;67.70;;;;;;5016847;28;20464;-71
2022/05/16 07:10:34;;;;;;;10.00;5.23;;;19.30;67.90;;;;;;5016986;28;20457;-71
2022/05/16 07:13:02;;;;;;;9.53;6.03;;;19.30;68.00;;;;;;5026870;28;20453;-71
2022/05/16 07:15:31;;;;;;;9.00;5.57;;;19.30;68.10;;;;;;5022935;28;20473;-71
2022/05/16 07:17:59;;;;;;;8.73;5.13;;;19.30;68.30;;;;;;5027351;28;20454;-71
2022/05/16 07:20:28;;;;;;;11.33;5.10;;;19.30;68.50;;;;;;5020276;28;20443;-72
2022/05/16 07:22:58;;;;;;;12.77;5.90;;;19.30;68.70;;;;;;5023073;28;20774;-71
2022/05/16 07:25:28;;;;;;;11.47;5.97;;;19.40;68.90;;;;;;5022904;28;20466;-70
2022/05/16 07:27:59;;;;;;;9.97;5.87;;;19.40;68.90;;;;;;5018646;28;20449;-71
2022/05/16 07:30:29;;;;;;;9.33;5.10;;;19.50;69.00;;;;;;5018814;28;20551;-72
2022/05/16 07:32:57;;;;;;;8.43;5.63;;;19.50;69.00;;;;;;5019606;28;20462;-70
2022/05/16 07:35:29;;;;;;;9.00;4.93;;;19.50;69.10;;;;;;5018084;28;20490;-71
2022/05/16 07:37:58;;;;;;;8.57;5.00;;;19.60;69.20;;;;;;5019907;28;20458;-70
2022/05/16 07:40:38;;;;;;;10.87;5.30;;;19.60;69.20;;;;;;5018068;28;20987;-71
2022/05/16 07:43:06;;;;;;;7.47;4.70;;;19.70;69.30;;;;;;5019057;28;21038;-69
2022/05/16 07:45:34;;;;;;;8.73;5.07;;;19.70;69.30;;;;;;5021272;28;20487;-70
2022/05/16 07:48:03;;;;;;;8.00;5.23;;;19.80;69.50;;;;;;5026153;28;21179;-70
2022/05/16 07:50:32;;;;;;;13.20;6.10;;;19.90;69.60;;;;;;5024392;28;20524;-69
2022/05/16 07:53:02;;;;;;;12.17;5.03;;;19.90;69.80;;;;;;5024053;28;20829;-70
2022/05/16 07:55:32;;;;;;;11.70;5.17;;;20.00;69.80;;;;;;5025938;28;20587;-70
2022/05/16 07:58:00;;;;;;;7.50;5.20;;;20.10;69.90;;;;;;5020151;28;20456;-70
2022/05/16 08:00:28;;;;;;;9.83;4.70;;;20.10;69.90;;;;;;5017747;28;20668;-71
2022/05/16 08:02:56;;;;;;;10.63;4.90;;;20.20;69.80;;;;;;5018857;28;20448;-70
2022/05/16 08:05:25;;;;;;;8.10;5.20;;;20.30;69.90;;;;;;5018895;28;20474;-71
2022/05/16 08:10:41;;;;;;;10.83;4.97;;;20.30;70.20;;;;;;5016946;28;20489;-72
2022/05/16 08:13:11;;;;;;;11.30;5.63;;;20.30;70.40;;;;;;5017994;28;20470;-70
2022/05/16 08:15:41;;;;;;;15.77;5.10;;;20.40;70.70;;;;;;5018409;28;20478;-70
2022/05/16 08:18:12;;;;;;;10.67;5.40;;;20.40;70.50;;;;;;5022364;28;20468;-70
2022/05/16 08:20:42;;;;;;;7.83;5.40;;;20.50;70.70;;;;;;5022084;28;20969;-70
2022/05/16 08:23:11;;;;;;;11.50;5.03;;;20.60;70.60;;;;;;5019936;28;20541;-71
2022/05/16 08:25:43;;;;;;;9.37;5.40;;;20.60;70.60;;;;;;5020109;28;21010;-69
2022/05/16 08:28:11;;;;;;;9.83;5.07;;;20.70;70.50;;;;;;5019070;28;20447;-72
2022/05/16 08:30:39;;;;;;;11.40;5.27;;;20.80;70.60;;;;;;5016258;28;20474;-73
2022/05/16 08:33:07;;;;;;;9.73;5.20;;;20.80;70.50;;;;;;5016115;28;20456;-71
2022/05/16 08:35:35;;;;;;;8.20;5.07;;;20.90;70.40;;;;;;5016013;28;20480;-71
2022/05/16 08:40:56;;;;;;;10.10;4.90;;;21.00;70.40;;;;;;5017011;28;20458;-71
2022/05/16 08:43:49;;;;;;;10.60;4.90;;;21.10;70.40;;;;;;5014511;28;21033;-71
2022/05/16 08:46:31;;;;;;;7.70;4.37;;;21.10;70.40;;;;;;5016626;28;20474;-71
2022/05/16 08:49:11;;;;;;;8.70;5.00;;;21.20;70.30;;;;;;5017295;28;20465;-71
2022/05/16 08:51:42;;;;;;;8.17;4.80;;;21.20;70.40;;;;;;5033677;28;20445;-71
2022/05/16 08:54:28;;;;;;;8.97;4.80;;;21.30;70.30;;;;;;5014891;28;20482;-71
2022/05/16 08:57:01;;;;;;;6.57;4.03;;;21.40;70.30;;;;;;5018356;28;20463;-71
2022/05/16 08:59:33;;;;;;;7.20;4.93;;;21.40;70.30;;;;;;5018403;28;20471;-71
2022/05/16 09:02:06;;;;;;;6.93;4.00;;;21.40;70.20;;;;;;5019884;28;20840;-71
2022/05/16 09:04:46;;;;;;;8.90;4.97;;;21.40;70.10;;;;;;5019671;28;20505;-71
2022/05/16 09:07:19;;;;;;;7.10;4.13;;;21.50;70.00;;;;;;5017484;28;20460;-71
2022/05/16 09:09:56;;;;;;;7.40;3.97;;;21.40;70.00;;;;;;5017949;28;20453;-70
2022/05/16 09:12:36;;;;;;;8.10;3.97;;;21.40;70.10;;;;;;5017191;28;20462;-71
2022/05/16 09:15:13;;;;;;;8.63;4.33;;;21.40;70.00;;;;;;5017067;28;20479;-71
2022/05/16 09:17:55;;;;;;;7.17;4.03;;;21.40;70.10;;;;;;5030896;28;20512;-72
2022/05/16 09:20:41;;;;;;;10.23;4.77;;;21.40;70.00;;;;;;5015360;28;20452;-72
2022/05/16 09:23:17;;;;;;;6.93;4.23;;;21.40;70.00;;;;;;5017894;28;20461;-70
2022/05/16 09:25:55;;;;;;;7.60;3.63;;;21.40;70.00;;;;;;5019350;28;20479;-71
2022/05/16 09:28:37;;;;;;;7.90;4.20;;;21.50;70.00;;;;;;5018789;28;20475;-70
2022/05/16 09:31:12;;;;;;;7.37;4.40;;;21.60;70.40;;;;;;5015300;28;20465;-71
2022/05/16 09:33:45;;;;;;;6.90;4.47;;;21.70;70.20;;;;;;5016315;28;20448;-71
2022/05/16 09:36:15;;;;;;;8.00;4.10;;;21.80;70.30;;;;;;5014368;28;20480;-71
2022/05/16 09:38:46;;;;;;;8.20;4.10;;;21.80;70.20;;;;;;5012632;28;20458;-71
2022/05/16 09:41:23;;;;;;;6.10;3.80;;;21.90;70.20;;;;;;5012901;28;20688;-68
2022/05/16 09:44:06;;;;;;;6.50;4.03;;;22.00;70.20;;;;;;5012295;28;20872;-72
2022/05/16 09:46:39;;;;;;;7.67;4.40;;;22.10;70.20;;;;;;5012081;28;20490;-71
2022/05/16 09:49:11;;;;;;;9.20;4.00;;;22.20;70.00;;;;;;5014418;28;20467;-71
2022/05/16 09:51:46;;;;;;;6.80;4.20;;;22.30;69.80;;;;;;5013293;28;20456;-71
2022/05/16 09:54:25;;;;;;;7.60;3.53;;;22.30;69.70;;;;;;5012260;28;20478;-72
2022/05/16 09:57:05;;;;;;;6.80;3.90;;;22.40;69.60;;;;;;5017724;28;20451;-71
2022/05/16 09:59:38;;;;;;;7.03;4.00;;;22.40;69.60;;;;;;5018470;28;20446;-71
2022/05/16 10:02:21;;;;;;;8.53;5.00;;;22.40;69.40;;;;;;5015066;28;21084;-72
2022/05/16 10:04:55;;;;;;;9.07;4.40;;;22.50;69.40;;;;;;5016398;28;20471;-71
2022/05/16 10:07:41;;;;;;;8.83;4.20;;;22.50;69.30;;;;;;5014257;28;20465;-73
2022/05/16 10:10:13;;;;;;;9.20;4.80;;;22.40;69.30;;;;;;5014578;28;20460;-70
2022/05/16 10:12:42;;;;;;;8.97;4.37;;;22.40;69.20;;;;;;5014763;28;20524;-70
2022/05/16 10:15:12;;;;;;;7.23;4.53;;;22.40;69.30;;;;;;5017509;28;20484;-70
2022/05/16 10:17:43;;;;;;;11.17;4.30;;;22.50;69.20;;;;;;5017717;28;20451;-70
2022/05/16 10:20:15;;;;;;;6.90;4.27;;;22.50;69.40;;;;;;5013943;28;20460;-70
2022/05/16 10:22:45;;;;;;;6.33;3.90;;;22.50;69.40;;;;;;5018208;28;21276;-70
2022/05/16 10:25:36;;;;;;;17.30;5.30;;;22.50;69.20;;;;;;5015416;28;20490;-71
2022/05/16 10:28:08;;;;;;;7.50;4.37;;;22.60;69.10;;;;;;5014930;28;21067;-70
2022/05/16 10:33:26;;;;;;;11.37;4.27;;;22.60;69.20;;;;;;5014966;28;20452;-70
2022/05/16 10:36:00;;;;;;;9.90;4.37;;;22.60;69.20;;;;;;5017179;28;20468;-70
2022/05/16 10:38:43;;;;;;;11.77;5.57;;;22.60;69.30;;;;;;5017571;28;20494;-70
2022/05/16 10:41:14;;;;;;;8.60;5.00;;;22.70;69.50;;;;;;5012007;28;20468;-70
2022/05/16 10:43:56;;;;;;;7.33;4.13;;;22.70;69.50;;;;;;5016819;28;20519;-70
2022/05/16 10:46:30;;;;;;;7.40;4.70;;;22.80;69.80;;;;;;5017594;28;20468;-71
2022/05/16 10:49:03;;;;;;;7.03;4.20;;;22.80;69.70;;;;;;5017318;28;20455;-71
2022/05/16 10:51:39;;;;;;;9.37;4.80;;;22.90;69.80;;;;;;5018572;28;21041;-71
2022/05/16 10:54:14;;;;;;;13.73;5.00;;;22.90;69.90;;;;;;5017726;28;20480;-70
2022/05/16 10:57:04;;;;;;;108.53;14.47;;;23.00;70.10;;;;;;5016956;28;20483;-71
2022/05/16 10:59:41;;;;;;;81.33;12.67;;;23.10;70.00;;;;;;5016435;28;20446;-71
2022/05/16 11:02:20;;;;;;;16.37;5.47;;;23.20;70.00;;;;;;5018635;28;20486;-71
2022/05/16 11:05:21;;;;;;;11.10;5.13;;;23.30;70.10;;;;;;5026189;28;20586;-70
2022/05/16 11:07:58;;;;;;;10.83;4.70;;;23.40;70.00;;;;;;5014312;28;20465;-68
2022/05/16 11:10:33;;;;;;;8.07;4.67;;;23.40;69.90;;;;;;5017275;28;20473;-71
2022/05/16 11:13:12;;;;;;;9.43;5.00;;;23.50;69.80;;;;;;5016556;28;20944;-72
2022/05/16 11:15:44;;;;;;;10.23;5.60;;;23.50;69.90;;;;;;5021219;28;20508;-71
2022/05/16 11:18:24;;;;;;;8.20;4.97;;;23.60;69.80;;;;;;5021583;28;20471;-71
2022/05/16 11:20:58;;;;;;;8.10;4.80;;;23.60;69.80;;;;;;5021684;28;20452;-71
2022/05/16 11:23:34;;;;;;;8.50;4.83;;;23.70;69.60;;;;;;5021380;28;20771;-70
2022/05/16 11:26:11;;;;;;;7.70;4.80;;;23.80;69.30;;;;;;5020522;28;20446;-70
2022/05/16 11:29:16;;;;;;;8.60;5.33;;;23.80;69.20;;;;;;5020758;28;20559;-70
2022/05/16 11:31:37;;;;;;;9.60;5.80;;;23.80;69.00;;;;;;5016174;28;21421;-70
2022/05/16 11:34:14;;;;;;;10.67;5.60;;;23.90;68.90;;;;;;5016967;28;20480;-70
2022/05/16 11:36:50;;;;;;;8.80;5.00;;;23.90;68.80;;;;;;5019966;28;20534;-70
2022/05/16 11:39:23;;;;;;;8.50;5.30;;;24.00;68.90;;;;;;5018845;28;20470;-70
2022/05/16 11:42:02;;;;;;;10.80;4.83;;;24.10;68.90;;;;;;5019567;28;20945;-70
2022/05/16 11:44:32;;;;;;;7.87;5.07;;;24.20;68.70;;;;;;5019721;28;20479;-70
2022/05/16 11:47:10;;;;;;;11.87;5.00;;;24.30;68.50;;;;;;5019797;28;20465;-70
2022/05/16 11:50:03;;;;;;;11.50;4.90;;;24.30;68.20;;;;;;5023549;28;20457;-70
2022/05/16 11:52:56;;;;;;;8.73;5.30;;;24.30;68.40;;;;;;5017271;28;20460;-70
2022/05/16 12:01:04;;;;;;;10.10;5.40;;;24.40;68.20;;;;;;5018076;28;20482;-70
2022/05/16 12:03:39;;;;;;;10.37;5.97;;;24.50;68.00;;;;;;5018315;28;20845;-70
2022/05/16 12:06:26;;;;;;;10.47;4.80;;;24.50;68.00;;;;;;5019569;28;20448;-70
2022/05/16 12:09:15;;;;;;;9.40;6.43;;;24.50;67.90;;;;;;5015243;28;20459;-70
2022/05/16 12:11:53;;;;;;;8.03;4.97;;;24.50;67.80;;;;;;5015851;28;20984;-70
2022/05/16 12:14:29;;;;;;;9.67;5.90;;;24.40;67.70;;;;;;5018641;28;21073;-70
2022/05/16 12:17:02;;;;;;;11.17;5.20;;;24.40;67.60;;;;;;5020490;28;20849;-70
2022/05/16 12:19:37;;;;;;;8.50;5.63;;;24.30;67.50;;;;;;5017447;28;20470;-71
2022/05/16 12:22:08;;;;;;;9.60;5.63;;;24.20;67.50;;;;;;5018037;28;20463;-70
2022/05/16 12:25:02;;;;;;;9.67;5.70;;;24.10;67.50;;;;;;5017930;28;20476;-70
2022/05/16 12:27:34;;;;;;;9.60;4.57;;;24.00;67.50;;;;;;5020646;28;20455;-70
2022/05/16 12:30:06;;;;;;;9.10;4.70;;;23.90;67.60;;;;;;5019786;28;20461;-70
2022/05/16 12:33:04;;;;;;;10.77;4.40;;;23.70;68.40;;;;;;5017500;28;21361;-71
2022/05/16 12:35:46;;;;;;;15.13;5.93;;;23.40;70.20;;;;;;4965741;28;21012;-71
2022/05/16 12:38:18;;;;;;;13.07;6.10;;;23.10;68.80;;;;;;5019434;28;20495;-71
2022/05/16 12:41:38;;;;;;;10.63;5.90;;;22.90;69.60;;;;;;5020562;28;22005;-71
2022/05/16 12:44:24;;;;;;;8.77;5.70;;;22.70;70.30;;;;;;5026067;28;20488;-70
2022/05/16 12:47:07;;;;;;;8.33;4.90;;;22.50;71.60;;;;;;5026601;28;20490;-70
2022/05/16 12:50:02;;;;;;;13.07;6.70;;;22.40;71.40;;;;;;5024736;28;20479;-71
2022/05/16 12:52:54;;;;;;;19.20;6.83;;;22.10;71.80;;;;;;5022961;28;20476;-70
2022/05/16 12:55:48;;;;;;;13.50;6.23;;;21.90;72.80;;;;;;5026049;28;20562;-71
2022/05/16 12:58:22;;;;;;;18.70;5.73;;;21.70;72.90;;;;;;5021488;28;20482;-71
2022/05/16 13:00:56;;;;;;;11.90;5.70;;;21.50;73.40;;;;;;5024544;28;20468;-70
2022/05/16 13:03:46;;;;;;;9.90;4.93;;;21.40;73.80;;;;;;5016197;28;21409;-70
2022/05/16 13:06:37;;;;;;;9.60;4.60;;;21.30;74.20;;;;;;5026534;28;20457;-70
2022/05/16 13:09:23;;;;;;;8.90;4.13;;;21.30;74.70;;;;;;5022224;28;20478;-70
2022/05/16 13:11:59;;;;;;;7.93;3.40;;;21.30;75.00;;;;;;5043153;28;20459;-70
2022/05/16 13:14:35;;;;;;;10.30;3.90;;;21.40;75.10;;;;;;5025347;28;20484;-70
2022/05/16 13:17:07;;;;;;;9.37;3.47;;;21.50;75.30;;;;;;5019926;28;20481;-70
2022/05/16 13:19:41;;;;;;;7.97;3.83;;;21.60;75.60;;;;;;5021218;28;20463;-70
2022/05/16 13:22:13;;;;;;;7.43;4.03;;;21.70;75.50;;;;;;5016843;28;20953;-70
2022/05/16 13:24:42;;;;;;;8.40;4.30;;;21.80;75.70;;;;;;5019545;28;21067;-70
2022/05/16 13:30:09;;;;;;;12.47;5.33;;;21.90;75.80;;;;;;5017492;28;20492;-70
2022/05/16 13:32:38;;;;;;;7.03;4.47;;;22.00;76.00;;;;;;5012204;28;20481;-70
2022/05/16 13:35:08;;;;;;;8.97;4.73;;;22.10;76.20;;;;;;5014712;28;20484;-70
2022/05/16 13:37:43;;;;;;;6.60;3.90;;;22.20;76.50;;;;;;5013377;28;20482;-69
2022/05/16 13:40:21;;;;;;;8.23;4.33;;;22.20;76.40;;;;;;5013963;28;20449;-69
2022/05/16 13:42:54;;;;;;;10.80;3.77;;;22.30;76.20;;;;;;5011961;28;20450;-69
2022/05/16 13:45:24;;;;;;;7.77;4.60;;;22.40;76.30;;;;;;5014124;28;20527;-69